Quick Links (Output Below):   Max & Min Temps   /   Climate Reports   /   Zone Forecasts
River Forecasts   /   Forestry Forecasts   /   Aviation Forecasts   /   Radars   /   Features

Terminal Aerodrome Forecast (Harrison)

Pick a Site:
Arkadelphia | El Dorado | Fayetteville | Fort Smith | Harrison | Highfill | Hot Springs | Jonesboro
Little Rock | Monticello | Mountain Home | Pine Bluff | Texarkana
 Forecast 

KHRO 251138Z 2512/2612 28005KT P6SM SKC
      TEMPO 2512/2513 6SM HZ
     FM251600 27006KT P6SM SKC
     FM260000 14003KT P6SM SCT250
     FM260600 14003KT 3SM BR SCT250=


 Latest METARs (Observations) 
How to Decode METARs
16Z KHRO 251553Z AUTO 28009KT 10SM CLR 24/16 A3011 RMK AO2 SLP185
         T02440161
         
15Z KHRO 251453Z AUTO 27009KT 10SM CLR 23/16 A3011 RMK AO2 SLP186
         T02280156 53008
         
14Z KHRO 251353Z AUTO 27007KT 10SM CLR 21/16 A3011 RMK AO2 SLP185
         T02110156
         
13Z KHRO 251253Z AUTO 27008G16KT 10SM CLR 20/15 A3009 RMK AO2 SLP178
         T02000150
         
12Z KHRO 251153Z AUTO 27007KT 10SM CLR 19/15 A3009 RMK AO2 SLP178
         T01940150 10194 20150 50006
         
11Z KHRO 251053Z AUTO 28005KT 10SM CLR 19/16 A3009 RMK AO2 SLP177
         T01890156
         
10Z KHRO 250953Z AUTO 28005KT 6SM HZ CLR 18/16 A3008 RMK AO2 SLP174
         T01830156
         
09Z KHRO 250853Z AUTO 28005KT 6SM HZ CLR 18/16 A3007 RMK AO2 SLP170
         T01830156 55002
         
08Z KHRO 250753Z AUTO VRB04KT 5SM HZ CLR 19/16 A3007 RMK AO2 SLP168
         T01890156
         
07Z KHRO 250653Z AUTO 00000KT 10SM CLR 15/14 A3007 RMK AO2 SLP172
         T01500139
         
***** Today's Observations (Above) *****


Back to Main Page
http://www.srh.noaa.gov/lzk/qfcst.php

USA.gov is the U.S. government's official web portal to all federal, state and local government web resources and services.